Time;durP1;ratioP1;P1;durP2;ratioP2;P2;SDS_P1;SDS_P2;PMS_P1;PMS_P2;Temp;Humidity;BMP_temperature;BMP_pressure;BME280_temperature;BME280_humidity;BME280_pressure;Samples;Min_cycle;Max_cycle;Signal;HPM_P1;HPM_P2
2023/04/16 00:00:18;;;;;;;58.35;23.02;;;;;;;;;;4942964;28;20057;-70
2023/04/16 00:02:44;;;;;;;75.45;24.70;;;9.10;99.90;;;;;;4943386;28;20539;-70
2023/04/16 00:05:10;;;;;;;67.85;25.30;;;;;;;;;;4958490;28;20058;-70
2023/04/16 00:07:36;;;;;;;53.53;23.02;;;;;;;;;;4957134;28;20520;-69
2023/04/16 00:10:02;;;;;;;75.05;25.95;;;;;;;;;;4958013;28;20806;-69
2023/04/16 00:12:28;;;;;;;85.75;26.30;;;;;;;;;;4941867;29;20126;-70
2023/04/16 00:14:54;;;;;;;76.82;27.77;;;;;;;;;;4960340;28;20038;-69
2023/04/16 00:17:20;;;;;;;72.22;25.15;;;;;;;;;;4942090;29;20039;-70
2023/04/16 00:19:46;;;;;;;81.60;25.30;;;;;;;;;;4959446;28;20461;-70
2023/04/16 00:22:12;;;;;;;67.82;25.30;;;;;;;;;;4946431;28;20472;-69
2023/04/16 00:24:38;;;;;;;69.60;24.80;;;9.00;99.90;;;;;;4945834;28;20108;-69
2023/04/16 00:27:04;;;;;;;79.18;26.95;;;;;;;;;;4965454;28;20042;-70
2023/04/16 00:29:29;;;;;;;68.43;26.35;;;9.00;99.90;;;;;;4945089;28;20093;-69
2023/04/16 00:31:56;;;;;;;72.25;24.40;;;;;;;;;;4937139;28;20501;-69
2023/04/16 00:34:21;;;;;;;73.88;26.63;;;;;;;;;;4942391;28;20074;-70
2023/04/16 00:36:47;;;;;;;97.32;29.45;;;;;;;;;;4937841;28;20135;-69
2023/04/16 00:39:13;;;;;;;72.88;26.80;;;;;;;;;;4953580;28;20047;-69
2023/04/16 00:41:40;;;;;;;78.55;26.05;;;;;;;;;;4954443;28;20051;-70
2023/04/16 00:44:06;;;;;;;72.13;27.65;;;;;;;;;;4933800;28;20047;-69
2023/04/16 00:46:32;;;;;;;80.47;29.33;;;;;;;;;;4954486;28;20050;-69
2023/04/16 00:49:00;;;;;;;73.32;26.10;;;9.00;99.90;;;;;;4941488;28;20098;-70
2023/04/16 00:51:26;;;;;;;79.53;26.77;;;;;;;;;;4941088;28;20046;-69
2023/04/16 00:53:52;;;;;;;73.57;28.25;;;;;;;;;;4942076;28;20043;-69
2023/04/16 00:56:18;;;;;;;78.85;25.75;;;;;;;;;;4960753;28;20042;-71
2023/04/16 00:58:44;;;;;;;90.65;28.65;;;;;;;;;;4938201;28;20043;-69
2023/04/16 01:01:10;;;;;;;85.90;27.08;;;9.00;99.90;;;;;;4939645;28;20050;-69
2023/04/16 01:03:43;;;;;;;78.05;28.00;;;;;;;;;;4941032;28;20828;-69
2023/04/16 01:06:10;;;;;;;78.30;29.80;;;;;;;;;;4940533;28;20054;-69
2023/04/16 01:08:35;;;;;;;76.85;27.40;;;9.00;99.90;;;;;;4961061;28;20043;-69
2023/04/16 01:11:02;;;;;;;79.93;28.02;;;;;;;;;;4941325;28;20055;-69
2023/04/16 01:13:28;;;;;;;72.50;27.95;;;;;;;;;;4943637;28;21349;-70
2023/04/16 01:15:53;;;;;;;78.65;27.38;;;9.00;99.90;;;;;;4940949;29;20409;-69
2023/04/16 01:18:20;;;;;;;77.28;27.48;;;;;;;;;;4929293;28;20047;-70
2023/04/16 01:20:47;;;;;;;85.80;28.20;;;8.90;99.90;;;;;;4937897;29;20398;-69
2023/04/16 01:23:13;;;;;;;71.57;26.88;;;;;;;;;;4948963;28;20497;-69
2023/04/16 01:25:39;;;;;;;88.72;28.23;;;;;;;;;;4942141;28;20050;-70
2023/04/16 01:28:05;;;;;;;82.50;28.95;;;;;;;;;;4939519;29;20111;-69
2023/04/16 01:30:31;;;;;;;88.15;28.50;;;9.10;99.90;;;;;;4940190;28;20054;-69
2023/04/16 01:32:57;;;;;;;87.22;29.58;;;;;;;;;;4958446;28;20043;-69
2023/04/16 01:35:23;;;;;;;82.28;27.92;;;8.80;99.90;;;;;;4958645;28;20039;-69
2023/04/16 01:37:51;;;;;;;71.50;27.73;;;;;;;;;;4936924;28;20055;-70
2023/04/16 01:40:17;;;;;;;90.05;29.02;;;;;;;;;;4956260;28;20049;-69
2023/04/16 01:42:43;;;;;;;70.57;26.58;;;;;;;;;;4945567;28;20042;-69
2023/04/16 01:45:09;;;;;;;82.93;26.80;;;9.00;99.90;;;;;;4962749;28;20053;-69
2023/04/16 01:47:35;;;;;;;74.40;27.40;;;;;;;;;;4945905;28;20055;-69
2023/04/16 01:50:02;;;;;;;74.47;25.75;;;9.00;99.90;;;;;;4941424;28;20047;-69
2023/04/16 01:52:28;;;;;;;73.30;27.33;;;;;;;;;;4962257;28;20126;-69
2023/04/16 01:54:54;;;;;;;71.53;26.58;;;;;;;;;;4960966;28;20122;-69
2023/04/16 01:57:19;;;;;;;73.70;26.77;;;9.10;99.90;;;;;;4941727;28;20066;-70
2023/04/16 01:59:45;;;;;;;63.92;26.75;;;;;;;;;;4944913;29;20039;-69
2023/04/16 02:02:12;;;;;;;65.72;26.33;;;;;;;;;;4938689;28;20086;-69
2023/04/16 02:04:38;;;;;;;72.78;26.48;;;;;;;;;;4962223;28;20051;-69
2023/04/16 02:07:04;;;;;;;62.13;24.58;;;9.00;99.90;;;;;;4942915;28;20078;-70
2023/04/16 02:09:30;;;;;;;66.38;24.90;;;;;;;;;;4941431;28;20844;-69
2023/04/16 02:11:56;;;;;;;61.03;24.98;;;9.00;99.90;;;;;;4960347;28;20039;-70
2023/04/16 02:14:24;;;;;;;69.95;27.40;;;9.00;99.90;;;;;;4962648;28;20515;-69
2023/04/16 02:16:50;;;;;;;73.32;26.95;;;8.90;99.90;;;;;;4945815;29;20101;-69
2023/04/16 02:19:16;;;;;;;69.82;26.05;;;;;;;;;;4962646;28;20113;-69
2023/04/16 02:21:41;;;;;;;72.30;24.70;;;9.00;99.90;;;;;;4937738;29;20051;-69
2023/04/16 02:24:07;;;;;;;70.38;25.25;;;;;;;;;;4962704;28;20063;-69
2023/04/16 02:26:33;;;;;;;69.55;26.00;;;;;;;;;;4937956;28;20062;-69
2023/04/16 02:29:00;;;;;;;67.10;24.90;;;;;;;;;;4957447;28;20458;-69
2023/04/16 02:31:27;;;;;;;72.63;25.20;;;;;;;;;;4935375;28;20055;-69
2023/04/16 02:33:53;;;;;;;54.55;23.08;;;;;;;;;;4958484;28;20055;-70
2023/04/16 02:36:19;;;;;;;54.60;24.13;;;;;;;;;;4941705;28;20039;-69
2023/04/16 02:38:45;;;;;;;60.40;24.33;;;;;;;;;;4963740;28;20043;-69
2023/04/16 02:41:11;;;;;;;50.83;24.75;;;;;;;;;;4942741;28;20047;-71
2023/04/16 02:43:37;;;;;;;59.78;24.55;;;9.00;99.90;;;;;;4948855;28;20058;-69
2023/04/16 02:46:03;;;;;;;60.08;24.45;;;;;;;;;;4947809;28;20736;-70
2023/04/16 02:48:29;;;;;;;53.20;24.30;;;;;;;;;;4939894;28;20050;-69
2023/04/16 02:50:55;;;;;;;64.82;25.55;;;;;;;;;;4941089;28;20051;-69
2023/04/16 02:53:20;;;;;;;62.65;24.20;;;9.00;99.90;;;;;;4938395;28;20494;-69
2023/04/16 02:55:51;;;;;;;67.00;24.67;;;;;;;;;;4944903;28;20079;-69
2023/04/16 02:58:21;;;;;;;62.45;23.55;;;8.90;99.90;;;;;;4943958;28;20046;-69
2023/04/16 03:00:47;;;;;;;60.95;25.02;;;;;;;;;;4949025;28;20046;-70
2023/04/16 03:03:13;;;;;;;60.83;24.85;;;8.90;99.90;;;;;;4942385;28;20494;-69
2023/04/16 03:05:39;;;;;;;58.72;24.80;;;;;;;;;;4937179;29;20769;-69
2023/04/16 03:08:05;;;;;;;59.88;24.48;;;;;;;;;;4962470;28;20047;-69
2023/04/16 03:10:31;;;;;;;72.55;26.45;;;9.00;99.90;;;;;;4943566;28;20517;-69
2023/04/16 03:12:57;;;;;;;70.57;25.42;;;;;;;;;;4943141;28;20078;-69
2023/04/16 03:15:23;;;;;;;72.32;25.58;;;8.90;99.90;;;;;;4945627;29;20055;-69
2023/04/16 03:17:49;;;;;;;60.88;25.92;;;;;;;;;;4944509;28;20064;-69
2023/04/16 03:20:16;;;;;;;72.15;26.45;;;;;;;;;;4958724;28;20098;-69
2023/04/16 03:22:41;;;;;;;68.85;28.27;;;8.90;99.90;;;;;;4942570;28;20472;-69
2023/04/16 03:25:08;;;;;;;63.97;27.33;;;;;;;;;;4939124;28;20055;-69
2023/04/16 03:27:34;;;;;;;70.85;27.58;;;;;;;;;;4961356;28;20696;-69
2023/04/16 03:30:00;;;;;;;83.50;29.70;;;;;;;;;;4945525;28;20039;-70
2023/04/16 03:32:26;;;;;;;81.22;28.50;;;;;;;;;;4957655;28;20051;-70
2023/04/16 03:34:52;;;;;;;76.88;28.10;;;8.80;99.90;;;;;;4944635;28;20047;-69
2023/04/16 03:37:18;;;;;;;68.15;29.92;;;;;;;;;;4941248;28;20042;-70
2023/04/16 03:39:43;;;;;;;74.10;29.23;;;8.90;99.90;;;;;;4948199;28;20452;-70
2023/04/16 03:42:09;;;;;;;78.55;29.30;;;;;;;;;;4945292;28;20070;-69
2023/04/16 03:44:35;;;;;;;63.95;27.23;;;;;;;;;;4939407;28;20496;-69
2023/04/16 03:47:01;;;;;;;58.88;28.00;;;;;;;;;;4941928;28;20046;-70
2023/04/16 03:49:27;;;;;;;62.35;26.73;;;8.90;99.90;;;;;;4940344;28;20050;-69
2023/04/16 03:51:53;;;;;;;72.00;28.10;;;;;;;;;;4939431;28;20057;-69
2023/04/16 03:54:18;;;;;;;67.07;28.23;;;8.90;99.90;;;;;;4956543;28;20454;-70
2023/04/16 03:56:44;;;;;;;69.50;28.42;;;;;;;;;;4942486;28;20053;-69
2023/04/16 03:59:10;;;;;;;68.45;28.13;;;;;;;;;;4961454;28;20105;-69
2023/04/16 04:01:36;;;;;;;61.78;27.23;;;;;;;;;;4944328;28;20042;-69
2023/04/16 04:04:02;;;;;;;71.60;28.30;;;8.70;99.90;;;;;;4939942;28;20109;-69
2023/04/16 04:06:28;;;;;;;66.80;28.05;;;;;;;;;;4938404;29;20047;-70
2023/04/16 04:08:53;;;;;;;60.75;27.48;;;8.80;99.90;;;;;;4939853;28;20524;-69
2023/04/16 04:11:20;;;;;;;67.85;29.08;;;;;;;;;;4939094;28;20055;-69
2023/04/16 04:13:46;;;;;;;70.45;27.65;;;;;;;;;;4961625;28;20413;-69
2023/04/16 04:16:12;;;;;;;63.28;27.70;;;;;;;;;;4943039;28;20055;-70
2023/04/16 04:18:37;;;;;;;64.70;27.52;;;8.70;99.90;;;;;;4964760;28;20047;-70
2023/04/16 04:21:07;;;;;;;72.13;28.15;;;;;;;;;;4936445;28;20051;-69
2023/04/16 04:23:33;;;;;;;73.57;29.88;;;8.70;99.90;;;;;;4940233;28;20473;-69
2023/04/16 04:26:02;;;;;;;63.72;28.85;;;;;;;;;;4937926;29;20148;-70
2023/04/16 04:28:31;;;;;;;68.45;31.35;;;9.00;99.90;;;;;;4945862;28;20121;-70
2023/04/16 04:30:57;;;;;;;67.00;29.50;;;;;;;;;;4945734;28;20122;-70
2023/04/16 04:33:24;;;;;;;70.13;30.63;;;;;;;;;;4939860;28;20677;-69
2023/04/16 04:35:50;;;;;;;73.57;31.00;;;;;;;;;;4955055;28;20046;-69
2023/04/16 04:38:20;;;;;;;66.97;29.25;;;;;;;;;;4942984;28;20046;-69
2023/04/16 04:40:47;;;;;;;73.60;32.00;;;;;;;;;;4942921;28;20129;-69
2023/04/16 04:43:13;;;;;;;74.60;30.02;;;;;;;;;;4941029;29;20083;-69
2023/04/16 04:45:38;;;;;;;73.10;31.27;;;8.80;99.90;;;;;;4957703;28;20093;-69
2023/04/16 04:48:04;;;;;;;75.22;31.42;;;8.60;99.90;;;;;;4959153;28;20089;-69
2023/04/16 04:50:30;;;;;;;68.60;30.60;;;;;;;;;;4960486;28;20045;-69
2023/04/16 04:52:56;;;;;;;71.45;30.20;;;;;;;;;;4963546;28;20043;-69
2023/04/16 04:55:22;;;;;;;80.10;30.00;;;;;;;;;;4959322;28;20051;-69
2023/04/16 04:57:48;;;;;;;80.93;31.35;;;8.60;99.90;;;;;;4956319;28;20061;-69
2023/04/16 05:00:14;;;;;;;70.57;29.48;;;;;;;;;;4955808;28;20501;-69
2023/04/16 05:02:40;;;;;;;81.25;31.10;;;;;;;;;;4941893;28;20046;-70
2023/04/16 05:05:07;;;;;;;81.93;30.83;;;;;;;;;;4958879;28;20039;-69
2023/04/16 05:07:33;;;;;;;78.07;31.13;;;;;;;;;;4943911;28;20051;-69
2023/04/16 05:09:58;;;;;;;70.53;29.70;;;8.80;99.90;;;;;;4941191;28;20394;-70
2023/04/16 05:12:24;;;;;;;70.25;30.02;;;;;;;;;;4944686;28;20046;-70
2023/04/16 05:14:50;;;;;;;67.30;28.98;;;8.90;99.90;;;;;;4938490;28;20053;-69
2023/04/16 05:17:16;;;;;;;68.35;28.75;;;;;;;;;;4941367;28;20766;-69
2023/04/16 05:19:42;;;;;;;60.35;26.67;;;;;;;;;;4957826;28;20113;-69
2023/04/16 05:22:08;;;;;;;64.80;28.55;;;;;;;;;;4936893;28;20046;-69
2023/04/16 05:24:33;;;;;;;65.05;27.70;;;8.80;99.90;;;;;;4948401;28;20058;-69
2023/04/16 05:27:00;;;;;;;56.60;25.30;;;;;;;;;;4955321;28;20087;-69
2023/04/16 05:29:26;;;;;;;65.13;27.48;;;;;;;;;;4944044;28;20062;-70
2023/04/16 05:31:52;;;;;;;72.38;30.23;;;8.90;99.90;;;;;;4964401;28;20133;-69
2023/04/16 05:34:18;;;;;;;65.20;28.13;;;;;;;;;;4941926;28;20134;-69
2023/04/16 05:36:44;;;;;;;69.43;27.30;;;;;;;;;;4960467;28;20078;-69
2023/04/16 05:39:10;;;;;;;52.33;25.55;;;;;;;;;;4943213;28;20047;-70
2023/04/16 05:41:36;;;;;;;54.35;24.60;;;;;;;;;;4942419;28;20046;-69
2023/04/16 05:44:02;;;;;;;61.13;25.70;;;;;;;;;;4958872;28;20078;-69
2023/04/16 05:46:28;;;;;;;63.85;24.25;;;;;;;;;;4956407;28;20097;-69
2023/04/16 05:48:54;;;;;;;52.13;24.75;;;;;;;;;;4936108;29;20098;-70
2023/04/16 05:51:21;;;;;;;56.38;23.83;;;;;;;;;;4953873;28;20035;-70
2023/04/16 05:53:47;;;;;;;52.20;23.75;;;;;;;;;;4938046;29;20058;-69
2023/04/16 05:56:13;;;;;;;55.25;24.00;;;;;;;;;;4936621;28;20050;-69
2023/04/16 05:58:39;;;;;;;54.05;25.40;;;;;;;;;;4944720;28;20057;-70
2023/04/16 06:01:06;;;;;;;58.63;24.25;;;;;;;;;;4960963;28;20039;-69
2023/04/16 06:03:32;;;;;;;58.95;23.75;;;;;;;;;;4958421;28;20038;-69
2023/04/16 06:05:58;;;;;;;53.65;23.98;;;;;;;;;;4952602;28;20046;-70
2023/04/16 06:08:24;;;;;;;55.03;23.50;;;;;;;;;;4941629;28;20126;-69
2023/04/16 06:10:50;;;;;;;58.47;23.00;;;;;;;;;;4935237;28;20051;-69
2023/04/16 06:13:16;;;;;;;61.47;24.38;;;;;;;;;;4936932;28;20070;-69
2023/04/16 06:15:42;;;;;;;62.92;24.85;;;;;;;;;;4955451;28;20098;-68
2023/04/16 06:18:08;;;;;;;59.17;23.50;;;;;;;;;;4944018;28;20054;-70
2023/04/16 06:20:34;;;;;;;66.80;24.75;;;;;;;;;;4958186;28;20047;-71
2023/04/16 06:23:00;;;;;;;55.38;23.23;;;;;;;;;;4959480;28;20142;-70
2023/04/16 06:25:26;;;;;;;60.70;24.27;;;;;;;;;;4947646;28;20057;-70
2023/04/16 06:27:52;;;;;;;59.05;24.40;;;;;;;;;;4946404;28;20054;-70
2023/04/16 06:30:18;;;;;;;50.55;22.85;;;;;;;;;;4957145;28;20131;-74
2023/04/16 06:32:45;;;;;;;54.97;23.95;;;;;;;;;;4951866;28;20043;-77
2023/04/16 06:35:11;;;;;;;58.97;21.58;;;;;;;;;;4934951;28;20051;-71
2023/04/16 06:37:37;;;;;;;64.13;23.52;;;;;;;;;;4934072;28;20235;-72
2023/04/16 06:40:03;;;;;;;58.60;23.70;;;;;;;;;;4946656;28;20514;-72
2023/04/16 06:42:29;;;;;;;71.05;23.05;;;;;;;;;;4937110;28;20394;-72
2023/04/16 06:44:55;;;;;;;55.25;22.67;;;;;;;;;;4937643;29;20109;-72
2023/04/16 06:47:21;;;;;;;58.75;23.42;;;;;;;;;;4936070;28;20425;-73
2023/04/16 06:49:47;;;;;;;59.17;22.98;;;;;;;;;;4936827;29;20043;-72
2023/04/16 06:52:13;;;;;;;56.17;23.77;;;;;;;;;;4944508;28;20050;-72
2023/04/16 06:54:39;;;;;;;59.92;21.90;;;;;;;;;;4944595;28;20038;-71
2023/04/16 06:57:05;;;;;;;60.20;22.88;;;9.50;99.90;;;;;;4943378;28;20050;-71
2023/04/16 06:59:31;;;;;;;65.90;25.20;;;;;;;;;;4943508;28;20047;-71
2023/04/16 07:01:57;;;;;;;62.72;24.50;;;;;;;;;;4943819;28;20056;-71
2023/04/16 07:04:23;;;;;;;69.47;23.83;;;;;;;;;;4945433;28;20425;-72
2023/04/16 07:06:50;;;;;;;59.78;23.73;;;;;;;;;;4946654;28;20519;-71
2023/04/16 07:09:19;;;;;;;54.63;22.52;;;;;;;;;;4946259;28;20480;-71
2023/04/16 07:11:45;;;;;;;56.60;23.67;;;;;;;;;;4943205;28;20050;-72
2023/04/16 07:14:11;;;;;;;58.60;25.00;;;;;;;;;;4948352;28;20055;-71
2023/04/16 07:16:37;;;;;;;50.55;23.10;;;;;;;;;;4963498;28;20047;-71
2023/04/16 07:19:03;;;;;;;56.83;22.48;;;;;;;;;;4945034;28;20122;-71
2023/04/16 07:21:30;;;;;;;57.80;24.05;;;;;;;;;;4936222;28;20477;-71
2023/04/16 07:23:55;;;;;;;51.47;23.50;;;10.10;99.90;;;;;;4961731;28;20505;-69
2023/04/16 07:26:21;;;;;;;45.10;20.50;;;;;;;;;;4946872;28;20055;-70
2023/04/16 07:28:47;;;;;;;46.47;21.20;;;;;;;;;;4940485;28;20404;-70
2023/04/16 07:31:13;;;;;;;50.00;21.23;;;;;;;;;;4958672;28;20043;-70
2023/04/16 07:33:39;;;;;;;46.83;22.52;;;;;;;;;;4939604;28;20086;-71
2023/04/16 07:36:05;;;;;;;57.42;21.80;;;;;;;;;;4940669;28;20498;-69
2023/04/16 07:38:33;;;;;;;45.47;22.40;;;;;;;;;;4943132;28;20051;-69
2023/04/16 07:40:59;;;;;;;60.00;22.58;;;;;;;;;;4959016;28;20055;-70
2023/04/16 07:43:25;;;;;;;63.42;23.65;;;;;;;;;;4941582;28;20077;-70
2023/04/16 07:45:51;;;;;;;55.75;22.63;;;10.40;99.90;;;;;;4962344;28;20481;-70
2023/04/16 07:48:17;;;;;;;57.03;23.85;;;;;;;;;;4960567;28;20039;-72
2023/04/16 07:50:43;;;;;;;45.17;22.77;;;;;;;;;;4957480;28;20039;-71
2023/04/16 07:53:09;;;;;;;55.17;22.60;;;;;;;;;;4940750;29;20086;-71
2023/04/16 07:55:34;;;;;;;60.55;24.20;;;10.60;99.90;;;;;;4938938;28;20472;-71
2023/04/16 07:58:01;;;;;;;57.65;23.73;;;;;;;;;;4946363;28;20046;-71
2023/04/16 08:00:27;;;;;;;60.33;24.35;;;;;;;;;;4957941;28;20042;-71
2023/04/16 08:02:53;;;;;;;58.75;23.52;;;;;;;;;;4963417;28;20050;-71
2023/04/16 08:05:19;;;;;;;49.72;21.45;;;;;;;;;;4954955;28;20101;-71
2023/04/16 08:07:45;;;;;;;48.75;21.02;;;;;;;;;;4963747;28;20043;-71
2023/04/16 08:10:11;;;;;;;58.38;22.33;;;10.80;99.90;;;;;;4939308;28;20070;-71
2023/04/16 08:12:37;;;;;;;54.53;22.13;;;;;;;;;;4955344;28;20046;-71
2023/04/16 08:15:04;;;;;;;52.38;21.05;;;;;;;;;;4940402;28;20821;-71
2023/04/16 08:17:30;;;;;;;45.50;21.20;;;;;;;;;;4935690;28;20572;-76
2023/04/16 08:19:56;;;;;;;49.58;21.08;;;;;;;;;;4939115;29;20047;-75
2023/04/16 08:22:21;;;;;;;42.65;20.25;;;11.10;99.90;;;;;;4932399;28;20494;-74
2023/04/16 08:24:47;;;;;;;39.67;20.20;;;;;;;;;;4944398;28;20050;-72
2023/04/16 08:27:13;;;;;;;45.63;19.73;;;;;;;;;;4960419;28;20042;-72
2023/04/16 08:29:39;;;;;;;41.75;19.80;;;;;;;;;;4938594;28;20043;-72
2023/04/16 08:32:05;;;;;;;46.13;19.60;;;11.10;99.90;;;;;;4935266;28;20409;-72
2023/04/16 08:34:31;;;;;;;38.72;19.85;;;;;;;;;;4938011;28;20054;-72
2023/04/16 08:36:57;;;;;;;40.35;20.27;;;11.50;99.90;;;;;;4954303;28;20041;-72
2023/04/16 08:39:23;;;;;;;35.90;19.30;;;;;;;;;;4940652;28;20536;-72
2023/04/16 08:41:49;;;;;;;38.17;18.55;;;;;;;;;;4940464;28;20511;-71
2023/04/16 08:44:29;;;;;;;43.30;17.95;;;12.10;99.90;;;;;;4958140;28;20051;-71
2023/04/16 08:46:58;;;;;;;42.03;18.85;;;;;;;;;;4943000;28;20135;-71
2023/04/16 08:49:27;;;;;;;37.47;19.35;;;12.10;99.90;;;;;;4940381;28;20154;-71
2023/04/16 08:51:54;;;;;;;45.75;19.98;;;12.30;99.90;;;;;;4935555;28;20058;-71
2023/04/16 08:54:45;;;;;;;38.35;18.45;;;12.00;99.90;;;;;;4957495;28;20039;-72
2023/04/16 08:57:14;;;;;;;39.70;18.25;;;12.20;99.90;;;;;;4939470;28;20145;-74
2023/04/16 08:59:46;;;;;;;46.80;17.83;;;12.60;99.90;;;;;;4936875;29;20529;-73
2023/04/16 09:02:12;;;;;;;40.38;17.23;;;;;;;;;;4949515;28;20051;-73
2023/04/16 09:04:40;;;;;;;35.78;18.05;;;12.40;99.90;;;;;;4938141;28;20047;-75
2023/04/16 09:07:08;;;;;;;41.00;17.33;;;12.60;99.90;;;;;;4941242;28;20053;-74
2023/04/16 09:09:34;;;;;;;33.08;15.27;;;12.80;99.90;;;;;;4939903;28;20498;-73
2023/04/16 09:12:00;;;;;;;40.38;16.85;;;;;;;;;;4938072;28;20054;-75
2023/04/16 09:14:26;;;;;;;34.80;15.85;;;;;;;;;;4938147;28;20043;-74
2023/04/16 09:16:53;;;;;;;29.38;14.85;;;13.00;99.90;;;;;;4960240;28;20039;-73
2023/04/16 09:19:19;;;;;;;33.95;15.98;;;;;;;;;;4943972;28;20492;-73
2023/04/16 09:21:46;;;;;;;31.05;15.75;;;13.40;99.90;;;;;;4936788;28;20606;-72
2023/04/16 09:24:12;;;;;;;33.60;16.48;;;13.50;99.90;;;;;;4939438;28;20059;-74
2023/04/16 09:26:40;;;;;;;38.70;15.70;;;13.90;99.90;;;;;;4958913;28;20046;-72
2023/04/16 09:29:08;;;;;;;37.90;16.83;;;;;;;;;;4950651;28;20413;-75
2023/04/16 09:31:34;;;;;;;43.25;16.73;;;;;;;;;;4941534;28;20070;-73
2023/04/16 09:34:04;;;;;;;35.70;15.43;;;13.70;99.90;;;;;;4942051;28;20967;-72
2023/04/16 09:36:31;;;;;;;31.92;17.33;;;14.00;99.90;;;;;;4952329;28;20043;-74
2023/04/16 09:38:57;;;;;;;32.72;15.75;;;13.90;99.90;;;;;;4938534;29;20071;-74
2023/04/16 09:41:28;;;;;;;36.15;15.30;;;14.10;99.90;;;;;;4944924;28;20066;-74
2023/04/16 09:43:58;;;;;;;28.42;14.98;;;14.10;99.90;;;;;;4941315;28;20047;-74
2023/04/16 09:46:33;;;;;;;36.03;16.92;;;13.80;99.90;;;;;;4941088;28;20857;-74
2023/04/16 09:49:07;;;;;;;42.53;15.95;;;14.30;99.90;;;;;;4938104;28;20400;-74
2023/04/16 09:51:37;;;;;;;38.28;14.68;;;14.20;99.90;;;;;;4933747;28;20476;-74
2023/04/16 09:54:06;;;;;;;34.40;16.70;;;14.20;99.90;;;;;;4959538;28;20082;-75
2023/04/16 09:56:32;;;;;;;41.17;16.73;;;;;;;;;;4962435;28;20047;-75
2023/04/16 09:59:00;;;;;;;32.50;15.45;;;14.10;99.90;;;;;;4963420;28;20047;-73
2023/04/16 10:01:26;;;;;;;28.50;15.48;;;;;;;;;;4944085;28;20045;-73
2023/04/16 10:03:54;;;;;;;30.50;14.95;;;14.20;99.90;;;;;;4938432;28;20773;-72
2023/04/16 10:06:22;;;;;;;35.30;15.65;;;14.20;99.90;;;;;;4940817;29;20055;-72
2023/04/16 10:08:52;;;;;;;30.73;13.98;;;14.30;99.90;;;;;;4924938;29;20052;-73
2023/04/16 10:11:20;;;;;;;33.47;16.65;;;14.30;99.90;;;;;;4962249;28;20053;-73
2023/04/16 10:13:46;;;;;;;27.70;13.32;;;;;;;;;;4951827;28;20043;-73
2023/04/16 10:16:12;;;;;;;33.00;15.23;;;14.50;99.90;;;;;;4942641;28;20047;-73
2023/04/16 10:18:39;;;;;;;29.33;14.07;;;14.60;99.90;;;;;;4962539;28;20039;-73
2023/04/16 10:21:05;;;;;;;28.48;14.65;;;;;;;;;;4939967;28;20063;-74
2023/04/16 10:23:31;;;;;;;26.58;13.48;;;14.70;99.90;;;;;;4940081;28;20066;-71
2023/04/16 10:25:58;;;;;;;29.35;16.05;;;15.10;99.90;;;;;;4937294;28;20786;-71
2023/04/16 10:28:25;;;;;;;29.75;14.48;;;;;;;;;;4942207;28;20501;-75
2023/04/16 10:30:52;;;;;;;34.55;14.10;;;;;;;;;;4939748;28;20055;-76
2023/04/16 10:33:22;;;;;;;28.60;13.70;;;15.40;99.90;;;;;;4943416;28;20047;-75
2023/04/16 10:35:49;;;;;;;27.60;14.10;;;15.40;99.90;;;;;;4932843;29;20039;-73
2023/04/16 10:38:25;;;;;;;29.17;14.45;;;15.40;99.90;;;;;;4961336;28;20075;-74
2023/04/16 10:40:59;;;;;;;35.72;15.88;;;15.40;99.90;;;;;;4956147;28;20762;-73
2023/04/16 10:43:25;;;;;;;29.02;13.95;;;;;;;;;;4939136;28;20058;-76
2023/04/16 10:45:52;;;;;;;35.85;16.85;;;15.50;99.90;;;;;;4960341;28;20054;-74
2023/04/16 10:48:18;;;;;;;29.05;13.98;;;15.40;99.90;;;;;;4964072;28;20085;-75
2023/04/16 10:50:55;;;;;;;35.17;16.40;;;15.80;99.90;;;;;;4940207;28;20067;-75
2023/04/16 10:53:37;;;;;;;29.75;14.90;;;15.30;99.90;;;;;;4927011;28;20138;-76
2023/04/16 10:56:06;;;;;;;28.23;14.80;;;;;;;;;;4923690;28;20449;-76
2023/04/16 10:58:34;;;;;;;23.30;13.82;;;15.50;99.90;;;;;;4947482;28;20121;-75
2023/04/16 11:01:05;;;;;;;25.02;13.50;;;15.40;99.90;;;;;;4940823;28;20599;-74
2023/04/16 11:03:31;;;;;;;28.88;15.70;;;15.30;99.90;;;;;;4940229;28;20050;-73
2023/04/16 11:06:22;;;;;;;27.75;14.52;;;15.20;99.90;;;;;;4943281;28;20047;-76
2023/04/16 11:08:50;;;;;;;26.40;15.32;;;15.30;99.90;;;;;;4922789;28;20126;-75
2023/04/16 11:11:17;;;;;;;32.00;15.13;;;15.30;99.90;;;;;;4950330;28;20086;-77
2023/04/16 11:13:46;;;;;;;38.00;15.77;;;15.30;99.90;;;;;;4924029;28;20046;-74
2023/04/16 11:16:13;;;;;;;29.08;14.52;;;15.10;99.90;;;;;;4945890;28;20047;-74
2023/04/16 11:18:40;;;;;;;32.10;15.52;;;;;;;;;;4947404;28;20047;-75
2023/04/16 11:21:11;;;;;;;25.10;15.18;;;15.20;99.90;;;;;;4954162;28;20074;-76
2023/04/16 11:23:50;;;;;;;30.45;14.98;;;15.00;99.90;;;;;;4937395;28;20077;-75
2023/04/16 11:26:28;;;;;;;32.03;15.82;;;15.20;99.90;;;;;;4954765;28;20502;-77
2023/04/16 11:28:59;;;;;;;28.75;15.07;;;15.10;99.90;;;;;;4931015;28;20042;-73
2023/04/16 11:31:26;;;;;;;28.98;15.98;;;;;;;;;;4936338;28;20047;-72
2023/04/16 11:33:51;;;;;;;31.92;15.25;;;15.10;99.90;;;;;;4936731;29;20051;-72
2023/04/16 11:36:17;;;;;;;29.65;15.50;;;;;;;;;;4929242;28;20050;-72
2023/04/16 11:38:43;;;;;;;29.45;14.73;;;15.00;99.90;;;;;;4966640;28;20043;-71
2023/04/16 11:41:10;;;;;;;27.48;16.38;;;15.10;99.90;;;;;;4953608;28;20061;-72
2023/04/16 11:43:36;;;;;;;26.80;15.32;;;;;;;;;;4934904;28;20061;-72
2023/04/16 11:46:03;;;;;;;36.22;17.00;;;15.20;99.90;;;;;;4938241;28;20054;-72
2023/04/16 11:48:52;;;;;;;30.42;16.63;;;15.10;99.90;;;;;;4955476;28;20047;-72
2023/04/16 11:51:19;;;;;;;34.38;15.23;;;;;;;;;;4946382;28;20058;-72
2023/04/16 11:53:50;;;;;;;26.98;15.65;;;15.10;99.90;;;;;;4946109;28;20141;-72
2023/04/16 11:56:16;;;;;;;29.88;16.05;;;;;;;;;;4945541;28;20090;-75
2023/04/16 11:58:42;;;;;;;32.28;16.05;;;15.20;99.90;;;;;;4958419;28;20057;-74
2023/04/16 12:01:09;;;;;;;28.33;15.10;;;15.20;99.90;;;;;;4961023;28;20050;-76
2023/04/16 12:03:48;;;;;;;32.03;15.23;;;15.00;99.90;;;;;;4944357;28;20669;-75
2023/04/16 12:06:14;;;;;;;29.45;16.92;;;;;;;;;;4938117;28;20632;-75
2023/04/16 12:08:40;;;;;;;25.35;15.68;;;;;;;;;;4941588;29;20083;-76
2023/04/16 12:11:06;;;;;;;30.70;16.65;;;;;;;;;;4936583;28;20641;-76
2023/04/16 12:13:38;;;;;;;33.33;16.83;;;;;;;;;;4937702;28;20050;-76
2023/04/16 12:16:18;;;;;;;34.03;17.48;;;15.00;99.90;;;;;;4941891;28;20505;-77
2023/04/16 12:19:00;;;;;;;36.00;19.35;;;15.30;99.90;;;;;;4937810;28;20047;-76
2023/04/16 12:21:35;;;;;;;31.85;16.23;;;15.20;99.90;;;;;;4951657;28;20145;-75
2023/04/16 12:24:01;;;;;;;33.85;17.05;;;;;;;;;;4940052;28;20063;-75
2023/04/16 12:26:28;;;;;;;31.67;15.98;;;;;;;;;;4941850;28;20066;-76
2023/04/16 12:28:54;;;;;;;32.08;16.67;;;;;;;;;;4938816;29;20043;-76
2023/04/16 12:31:36;;;;;;;33.05;16.98;;;15.10;99.90;;;;;;4938635;29;20086;-75
2023/04/16 12:34:01;;;;;;;37.45;16.60;;;15.10;99.90;;;;;;4953173;28;20048;-75
2023/04/16 12:36:28;;;;;;;31.92;16.77;;;;;;;;;;4923333;29;20054;-76
2023/04/16 12:38:53;;;;;;;31.48;16.88;;;;;;;;;;4933184;28;20059;-76
2023/04/16 12:41:19;;;;;;;30.70;16.92;;;;;;;;;;4940483;28;20030;-76
2023/04/16 12:43:45;;;;;;;35.63;16.98;;;;;;;;;;4933304;28;20051;-76
2023/04/16 12:46:11;;;;;;;33.38;17.55;;;;;;;;;;4955672;28;20391;-75
2023/04/16 12:48:37;;;;;;;29.42;15.52;;;15.20;99.90;;;;;;4936107;28;20158;-75
2023/04/16 12:51:03;;;;;;;34.38;17.00;;;15.30;99.90;;;;;;4935532;28;20051;-76
2023/04/16 12:53:28;;;;;;;35.03;18.33;;;15.30;99.90;;;;;;4932866;28;20047;-77
2023/04/16 12:55:54;;;;;;;29.75;15.85;;;;;;;;;;4945411;28;20408;-76
2023/04/16 12:58:20;;;;;;;30.17;15.93;;;;;;;;;;4939426;28;20100;-77
2023/04/16 13:00:46;;;;;;;29.80;16.50;;;15.30;99.90;;;;;;4935673;28;20042;-75
2023/04/16 13:03:12;;;;;;;32.40;16.75;;;;;;;;;;4937670;28;20038;-74
2023/04/16 13:05:38;;;;;;;27.02;15.52;;;;;;;;;;4937865;28;20047;-75
2023/04/16 13:08:03;;;;;;;29.42;15.10;;;15.30;99.90;;;;;;4938536;28;20102;-78
2023/04/16 13:10:33;;;;;;;24.50;16.67;;;15.40;99.90;;;;;;4939269;29;20043;-78
2023/04/16 13:12:59;;;;;;;29.67;16.20;;;;;;;;;;4940009;28;20102;-75
2023/04/16 13:15:25;;;;;;;27.00;16.92;;;;;;;;;;4941006;28;20716;-75
2023/04/16 13:17:51;;;;;;;30.33;15.93;;;;;;;;;;4935558;29;20129;-73
2023/04/16 13:20:17;;;;;;;26.95;15.48;;;;;;;;;;4952376;28;20408;-73
2023/04/16 13:22:43;;;;;;;25.67;15.50;;;;;;;;;;4959216;28;20105;-73
2023/04/16 13:25:09;;;;;;;31.85;16.40;;;;;;;;;;4946223;28;20058;-73
2023/04/16 13:27:35;;;;;;;37.65;23.50;;;;;;;;;;4942633;28;20150;-73
2023/04/16 13:30:01;;;;;;;27.88;18.08;;;;;;;;;;4942722;28;20125;-73
2023/04/16 13:32:26;;;;;;;28.50;16.02;;;15.50;99.90;;;;;;4937482;28;20049;-73